sensor_id;sensor_type;location;lat;lon;timestamp;temperature;humidity
7204;DHT22;3643;52.460;13.322;2024-02-15T00:00:05;8.40;99.90
7204;DHT22;3643;52.460;13.322;2024-02-15T00:02:35;8.50;99.90
7204;DHT22;3643;52.460;13.322;2024-02-15T00:05:03;8.60;99.90
7204;DHT22;3643;52.460;13.322;2024-02-15T00:07:32;8.50;99.90
7204;DHT22;3643;52.460;13.322;2024-02-15T00:10:02;8.50;99.90
7204;DHT22;3643;52.460;13.322;2024-02-15T00:12:32;8.50;99.90
7204;DHT22;3643;52.460;13.322;2024-02-15T00:15:00;8.60;99.90
7204;DHT22;3643;52.460;13.322;2024-02-15T00:17:28;8.60;99.90
7204;DHT22;3643;52.460;13.322;2024-02-15T00:19:57;8.60;99.90
7204;DHT22;3643;52.460;13.322;2024-02-15T00:22:26;8.60;99.90
7204;DHT22;3643;52.460;13.322;2024-02-15T00:24:54;8.60;99.90
7204;DHT22;3643;52.460;13.322;2024-02-15T00:27:22;8.60;99.90
7204;DHT22;3643;52.460;13.322;2024-02-15T00:29:51;8.60;99.90
7204;DHT22;3643;52.460;13.322;2024-02-15T00:32:19;8.60;99.90
7204;DHT22;3643;52.460;13.322;2024-02-15T00:34:48;8.60;99.90
7204;DHT22;3643;52.460;13.322;2024-02-15T00:37:16;8.70;99.90
7204;DHT22;3643;52.460;13.322;2024-02-15T00:39:44;8.70;99.90
7204;DHT22;3643;52.460;13.322;2024-02-15T00:42:12;8.60;99.90
7204;DHT22;3643;52.460;13.322;2024-02-15T00:44:42;8.70;99.90
7204;DHT22;3643;52.460;13.322;2024-02-15T00:47:11;8.70;99.90
7204;DHT22;3643;52.460;13.322;2024-02-15T00:49:40;8.70;99.90
7204;DHT22;3643;52.460;13.322;2024-02-15T00:52:08;8.70;99.90
7204;DHT22;3643;52.460;13.322;2024-02-15T00:54:36;8.70;99.90
7204;DHT22;3643;52.460;13.322;2024-02-15T00:57:04;8.70;99.90
7204;DHT22;3643;52.460;13.322;2024-02-15T00:59:32;8.70;99.90
7204;DHT22;3643;52.460;13.322;2024-02-15T01:02:03;8.70;99.90
7204;DHT22;3643;52.460;13.322;2024-02-15T01:04:34;8.70;99.90
7204;DHT22;3643;52.460;13.322;2024-02-15T01:07:02;8.70;99.90
7204;DHT22;3643;52.460;13.322;2024-02-15T01:09:30;8.70;99.90
7204;DHT22;3643;52.460;13.322;2024-02-15T01:11:58;8.80;99.90
7204;DHT22;3643;52.460;13.322;2024-02-15T01:14:27;8.70;99.90
7204;DHT22;3643;52.460;13.322;2024-02-15T01:16:57;8.70;99.90
7204;DHT22;3643;52.460;13.322;2024-02-15T01:19:25;8.70;99.90
7204;DHT22;3643;52.460;13.322;2024-02-15T01:21:56;8.70;99.90
7204;DHT22;3643;52.460;13.322;2024-02-15T01:24:26;8.80;99.90
7204;DHT22;3643;52.460;13.322;2024-02-15T01:26:54;8.80;99.90
7204;DHT22;3643;52.460;13.322;2024-02-15T01:29:22;8.80;99.90
7204;DHT22;3643;52.460;13.322;2024-02-15T01:31:51;8.90;99.90
7204;DHT22;3643;52.460;13.322;2024-02-15T01:34:19;8.80;99.90
7204;DHT22;3643;52.460;13.322;2024-02-15T01:36:48;8.80;99.90
7204;DHT22;3643;52.460;13.322;2024-02-15T01:39:18;8.80;99.90
7204;DHT22;3643;52.460;13.322;2024-02-15T01:41:48;8.80;99.90
7204;DHT22;3643;52.460;13.322;2024-02-15T01:44:18;8.80;99.90
7204;DHT22;3643;52.460;13.322;2024-02-15T01:46:48;8.80;99.90
7204;DHT22;3643;52.460;13.322;2024-02-15T01:49:19;8.80;99.90
7204;DHT22;3643;52.460;13.322;2024-02-15T01:51:50;8.80;99.90
7204;DHT22;3643;52.460;13.322;2024-02-15T01:54:20;8.80;99.90
7204;DHT22;3643;52.460;13.322;2024-02-15T01:56:48;8.80;99.90
7204;DHT22;3643;52.460;13.322;2024-02-15T01:59:17;8.80;99.90
7204;DHT22;3643;52.460;13.322;2024-02-15T02:01:45;8.80;99.90
7204;DHT22;3643;52.460;13.322;2024-02-15T02:04:14;8.80;99.90
7204;DHT22;3643;52.460;13.322;2024-02-15T02:06:42;8.80;99.90
7204;DHT22;3643;52.460;13.322;2024-02-15T02:09:10;8.80;99.90
7204;DHT22;3643;52.460;13.322;2024-02-15T02:11:45;8.80;99.90
7204;DHT22;3643;52.460;13.322;2024-02-15T02:14:15;8.80;99.90
7204;DHT22;3643;52.460;13.322;2024-02-15T02:16:43;8.80;99.90
7204;DHT22;3643;52.460;13.322;2024-02-15T02:19:13;8.80;99.90
7204;DHT22;3643;52.460;13.322;2024-02-15T02:21:41;8.80;99.90
7204;DHT22;3643;52.460;13.322;2024-02-15T02:24:13;8.80;99.90
7204;DHT22;3643;52.460;13.322;2024-02-15T02:26:43;8.80;99.90
7204;DHT22;3643;52.460;13.322;2024-02-15T02:29:12;8.80;99.90
7204;DHT22;3643;52.460;13.322;2024-02-15T02:31:40;8.80;99.90
7204;DHT22;3643;52.460;13.322;2024-02-15T02:34:09;8.80;99.90
7204;DHT22;3643;52.460;13.322;2024-02-15T02:36:38;8.80;99.90
7204;DHT22;3643;52.460;13.322;2024-02-15T02:39:07;8.80;99.90
7204;DHT22;3643;52.460;13.322;2024-02-15T02:41:35;8.80;99.90
7204;DHT22;3643;52.460;13.322;2024-02-15T02:44:05;8.80;99.90
7204;DHT22;3643;52.460;13.322;2024-02-15T02:46:33;8.80;99.90
7204;DHT22;3643;52.460;13.322;2024-02-15T02:49:02;8.80;99.90
7204;DHT22;3643;52.460;13.322;2024-02-15T02:51:30;8.90;99.90
7204;DHT22;3643;52.460;13.322;2024-02-15T02:53:58;8.90;99.90
7204;DHT22;3643;52.460;13.322;2024-02-15T02:56:26;8.90;99.90
7204;DHT22;3643;52.460;13.322;2024-02-15T02:58:54;8.90;99.90
7204;DHT22;3643;52.460;13.322;2024-02-15T03:01:24;8.90;99.90
7204;DHT22;3643;52.460;13.322;2024-02-15T03:03:53;9.00;99.90
7204;DHT22;3643;52.460;13.322;2024-02-15T03:06:22;8.90;99.90
7204;DHT22;3643;52.460;13.322;2024-02-15T03:08:51;8.90;99.90
7204;DHT22;3643;52.460;13.322;2024-02-15T03:11:21;8.90;99.90
7204;DHT22;3643;52.460;13.322;2024-02-15T03:13:49;8.90;99.90
7204;DHT22;3643;52.460;13.322;2024-02-15T03:16:17;8.90;99.90
7204;DHT22;3643;52.460;13.322;2024-02-15T03:18:46;8.90;99.90
7204;DHT22;3643;52.460;13.322;2024-02-15T03:21:15;8.90;99.90
7204;DHT22;3643;52.460;13.322;2024-02-15T03:23:44;8.90;99.90
7204;DHT22;3643;52.460;13.322;2024-02-15T03:26:12;8.90;99.90
7204;DHT22;3643;52.460;13.322;2024-02-15T03:28:40;8.90;99.90
7204;DHT22;3643;52.460;13.322;2024-02-15T03:31:08;8.90;99.90
7204;DHT22;3643;52.460;13.322;2024-02-15T03:33:37;8.90;99.90
7204;DHT22;3643;52.460;13.322;2024-02-15T03:36:07;8.90;99.90
7204;DHT22;3643;52.460;13.322;2024-02-15T03:38:37;8.90;99.90
7204;DHT22;3643;52.460;13.322;2024-02-15T03:41:05;8.90;99.90
7204;DHT22;3643;52.460;13.322;2024-02-15T03:43:33;8.90;99.90
7204;DHT22;3643;52.460;13.322;2024-02-15T03:46:04;8.90;99.90
7204;DHT22;3643;52.460;13.322;2024-02-15T03:48:34;8.90;99.90
7204;DHT22;3643;52.460;13.322;2024-02-15T03:51:02;9.00;99.90
7204;DHT22;3643;52.460;13.322;2024-02-15T03:53:32;9.00;99.90
7204;DHT22;3643;52.460;13.322;2024-02-15T03:56:00;8.90;99.90
7204;DHT22;3643;52.460;13.322;2024-02-15T03:58:28;9.00;99.90
7204;DHT22;3643;52.460;13.322;2024-02-15T04:00:57;9.00;99.90
7204;DHT22;3643;52.460;13.322;2024-02-15T04:03:25;9.00;99.90
7204;DHT22;3643;52.460;13.322;2024-02-15T04:05:53;9.00;99.90
7204;DHT22;3643;52.460;13.322;2024-02-15T04:08:21;9.00;99.90
7204;DHT22;3643;52.460;13.322;2024-02-15T04:10:51;9.00;99.90
7204;DHT22;3643;52.460;13.322;2024-02-15T04:13:20;9.10;99.90
7204;DHT22;3643;52.460;13.322;2024-02-15T04:15:48;9.10;99.90
7204;DHT22;3643;52.460;13.322;2024-02-15T04:18:17;9.00;99.90
7204;DHT22;3643;52.460;13.322;2024-02-15T04:20:45;9.00;99.90
7204;DHT22;3643;52.460;13.322;2024-02-15T04:23:15;9.00;99.90
7204;DHT22;3643;52.460;13.322;2024-02-15T04:25:43;9.00;99.90
7204;DHT22;3643;52.460;13.322;2024-02-15T04:28:18;9.00;99.90
7204;DHT22;3643;52.460;13.322;2024-02-15T04:30:46;9.00;99.90
7204;DHT22;3643;52.460;13.322;2024-02-15T04:33:15;9.00;99.90
7204;DHT22;3643;52.460;13.322;2024-02-15T04:35:44;9.10;99.90
7204;DHT22;3643;52.460;13.322;2024-02-15T04:38:12;9.10;99.90
7204;DHT22;3643;52.460;13.322;2024-02-15T04:40:40;9.10;99.90
7204;DHT22;3643;52.460;13.322;2024-02-15T04:43:08;9.10;99.90
7204;DHT22;3643;52.460;13.322;2024-02-15T04:45:37;9.10;99.90
7204;DHT22;3643;52.460;13.322;2024-02-15T04:48:06;9.00;99.90
7204;DHT22;3643;52.460;13.322;2024-02-15T04:50:34;9.10;99.90
7204;DHT22;3643;52.460;13.322;2024-02-15T04:53:03;9.10;99.90
7204;DHT22;3643;52.460;13.322;2024-02-15T04:55:33;9.10;99.90
7204;DHT22;3643;52.460;13.322;2024-02-15T04:58:02;9.10;99.90
7204;DHT22;3643;52.460;13.322;2024-02-15T05:00:31;9.10;99.90
7204;DHT22;3643;52.460;13.322;2024-02-15T05:03:00;9.10;99.90
7204;DHT22;3643;52.460;13.322;2024-02-15T05:05:28;9.10;99.90
7204;DHT22;3643;52.460;13.322;2024-02-15T05:07:56;9.10;99.90
7204;DHT22;3643;52.460;13.322;2024-02-15T05:10:24;9.10;99.90
7204;DHT22;3643;52.460;13.322;2024-02-15T05:12:52;9.10;99.90
7204;DHT22;3643;52.460;13.322;2024-02-15T05:15:22;9.10;99.90
7204;DHT22;3643;52.460;13.322;2024-02-15T05:17:51;9.20;99.90
7204;DHT22;3643;52.460;13.322;2024-02-15T05:20:22;9.10;99.90
7204;DHT22;3643;52.460;13.322;2024-02-15T05:22:53;9.10;99.90
7204;DHT22;3643;52.460;13.322;2024-02-15T05:25:21;9.10;99.90
7204;DHT22;3643;52.460;13.322;2024-02-15T05:27:52;9.10;99.90
7204;DHT22;3643;52.460;13.322;2024-02-15T05:30:23;9.10;99.90
7204;DHT22;3643;52.460;13.322;2024-02-15T05:32:51;9.20;99.90
7204;DHT22;3643;52.460;13.322;2024-02-15T05:35:22;9.20;99.90
7204;DHT22;3643;52.460;13.322;2024-02-15T05:37:51;9.20;99.90
7204;DHT22;3643;52.460;13.322;2024-02-15T05:40:20;9.10;99.90
7204;DHT22;3643;52.460;13.322;2024-02-15T05:42:48;9.20;99.90
7204;DHT22;3643;52.460;13.322;2024-02-15T05:45:30;9.10;99.90
7204;DHT22;3643;52.460;13.322;2024-02-15T05:48:00;9.20;99.90
7204;DHT22;3643;52.460;13.322;2024-02-15T05:50:30;9.20;99.90
7204;DHT22;3643;52.460;13.322;2024-02-15T05:52:58;9.20;99.90
7204;DHT22;3643;52.460;13.322;2024-02-15T05:55:28;9.20;99.90
7204;DHT22;3643;52.460;13.322;2024-02-15T05:57:56;9.20;99.90
7204;DHT22;3643;52.460;13.322;2024-02-15T06:00:24;9.20;99.90
7204;DHT22;3643;52.460;13.322;2024-02-15T06:02:52;9.20;99.90
7204;DHT22;3643;52.460;13.322;2024-02-15T06:05:21;9.30;99.90
7204;DHT22;3643;52.460;13.322;2024-02-15T06:07:52;9.20;99.90
7204;DHT22;3643;52.460;13.322;2024-02-15T06:10:20;9.20;99.90
7204;DHT22;3643;52.460;13.322;2024-02-15T06:12:48;9.40;99.90
7204;DHT22;3643;52.460;13.322;2024-02-15T06:15:16;9.20;99.90
7204;DHT22;3643;52.460;13.322;2024-02-15T06:17:46;9.20;99.90
7204;DHT22;3643;52.460;13.322;2024-02-15T06:20:15;9.20;99.90
7204;DHT22;3643;52.460;13.322;2024-02-15T06:22:45;9.30;99.90
7204;DHT22;3643;52.460;13.322;2024-02-15T06:25:15;9.20;99.90
7204;DHT22;3643;52.460;13.322;2024-02-15T06:27:47;9.30;99.90
7204;DHT22;3643;52.460;13.322;2024-02-15T06:30:17;9.30;99.90
7204;DHT22;3643;52.460;13.322;2024-02-15T06:33:03;9.30;99.90
7204;DHT22;3643;52.460;13.322;2024-02-15T06:35:49;9.30;99.90
7204;DHT22;3643;52.460;13.322;2024-02-15T06:38:35;9.30;99.90
7204;DHT22;3643;52.460;13.322;2024-02-15T06:41:22;9.30;99.90
7204;DHT22;3643;52.460;13.322;2024-02-15T06:43:52;9.30;99.90
7204;DHT22;3643;52.460;13.322;2024-02-15T06:46:22;9.40;99.90
7204;DHT22;3643;52.460;13.322;2024-02-15T06:48:50;9.40;99.90
7204;DHT22;3643;52.460;13.322;2024-02-15T06:51:19;9.40;99.90
7204;DHT22;3643;52.460;13.322;2024-02-15T06:53:48;9.40;99.90
7204;DHT22;3643;52.460;13.322;2024-02-15T06:56:16;9.40;99.90
7204;DHT22;3643;52.460;13.322;2024-02-15T06:58:49;9.50;99.90
7204;DHT22;3643;52.460;13.322;2024-02-15T07:01:18;9.40;99.90
7204;DHT22;3643;52.460;13.322;2024-02-15T07:03:46;9.40;99.90
7204;DHT22;3643;52.460;13.322;2024-02-15T07:06:14;9.50;99.90
7204;DHT22;3643;52.460;13.322;2024-02-15T07:08:43;9.50;99.90
7204;DHT22;3643;52.460;13.322;2024-02-15T07:11:12;9.50;99.90
7204;DHT22;3643;52.460;13.322;2024-02-15T07:13:40;9.50;99.90
7204;DHT22;3643;52.460;13.322;2024-02-15T07:16:09;9.50;99.90
7204;DHT22;3643;52.460;13.322;2024-02-15T07:18:38;9.50;99.90
7204;DHT22;3643;52.460;13.322;2024-02-15T07:21:06;9.50;99.90
7204;DHT22;3643;52.460;13.322;2024-02-15T07:23:37;9.50;99.90
7204;DHT22;3643;52.460;13.322;2024-02-15T07:26:06;9.50;99.90
7204;DHT22;3643;52.460;13.322;2024-02-15T07:28:34;9.50;99.90
7204;DHT22;3643;52.460;13.322;2024-02-15T07:31:03;9.50;99.90
7204;DHT22;3643;52.460;13.322;2024-02-15T07:33:32;9.60;99.90
7204;DHT22;3643;52.460;13.322;2024-02-15T07:36:02;9.60;99.90
7204;DHT22;3643;52.460;13.322;2024-02-15T07:38:30;9.60;99.90
7204;DHT22;3643;52.460;13.322;2024-02-15T07:41:01;9.60;99.90
7204;DHT22;3643;52.460;13.322;2024-02-15T07:43:29;9.70;99.90
7204;DHT22;3643;52.460;13.322;2024-02-15T07:45:57;9.80;99.90
7204;DHT22;3643;52.460;13.322;2024-02-15T07:48:24;9.80;99.90
7204;DHT22;3643;52.460;13.322;2024-02-15T07:50:55;9.90;99.90
7204;DHT22;3643;52.460;13.322;2024-02-15T07:53:25;9.80;99.90
7204;DHT22;3643;52.460;13.322;2024-02-15T07:55:53;9.80;99.90
7204;DHT22;3643;52.460;13.322;2024-02-15T07:58:21;9.80;99.90
7204;DHT22;3643;52.460;13.322;2024-02-15T08:00:49;9.80;99.90
7204;DHT22;3643;52.460;13.322;2024-02-15T08:03:17;9.80;99.90
7204;DHT22;3643;52.460;13.322;2024-02-15T08:05:45;9.90;99.90
7204;DHT22;3643;52.460;13.322;2024-02-15T08:08:15;9.90;99.90
7204;DHT22;3643;52.460;13.322;2024-02-15T08:10:43;10.00;99.90
7204;DHT22;3643;52.460;13.322;2024-02-15T08:13:12;10.20;99.90
7204;DHT22;3643;52.460;13.322;2024-02-15T08:15:42;10.20;99.90
7204;DHT22;3643;52.460;13.322;2024-02-15T08:18:11;10.30;99.90
7204;DHT22;3643;52.460;13.322;2024-02-15T08:20:39;10.30;99.90
7204;DHT22;3643;52.460;13.322;2024-02-15T08:23:07;10.30;99.90
7204;DHT22;3643;52.460;13.322;2024-02-15T08:25:39;10.40;99.90
7204;DHT22;3643;52.460;13.322;2024-02-15T08:28:08;10.30;99.90
7204;DHT22;3643;52.460;13.322;2024-02-15T08:30:37;10.60;99.90
7204;DHT22;3643;52.460;13.322;2024-02-15T08:33:05;10.50;99.90
7204;DHT22;3643;52.460;13.322;2024-02-15T08:35:33;10.50;99.90
7204;DHT22;3643;52.460;13.322;2024-02-15T08:38:01;10.50;99.90
7204;DHT22;3643;52.460;13.322;2024-02-15T08:40:32;10.50;99.90
7204;DHT22;3643;52.460;13.322;2024-02-15T08:43:02;10.60;99.90
7204;DHT22;3643;52.460;13.322;2024-02-15T08:45:30;10.60;99.90
7204;DHT22;3643;52.460;13.322;2024-02-15T08:47:58;10.60;99.90
7204;DHT22;3643;52.460;13.322;2024-02-15T08:50:26;10.60;99.90
7204;DHT22;3643;52.460;13.322;2024-02-15T08:52:54;10.50;99.90
7204;DHT22;3643;52.460;13.322;2024-02-15T08:55:23;10.40;99.90
7204;DHT22;3643;52.460;13.322;2024-02-15T08:57:53;10.40;99.90
7204;DHT22;3643;52.460;13.322;2024-02-15T09:00:23;10.60;99.90
7204;DHT22;3643;52.460;13.322;2024-02-15T09:02:53;10.70;99.90
7204;DHT22;3643;52.460;13.322;2024-02-15T09:05:22;10.80;99.90
7204;DHT22;3643;52.460;13.322;2024-02-15T09:07:51;10.80;99.90
7204;DHT22;3643;52.460;13.322;2024-02-15T09:10:19;10.80;99.90
7204;DHT22;3643;52.460;13.322;2024-02-15T09:12:49;10.90;99.90
7204;DHT22;3643;52.460;13.322;2024-02-15T09:15:17;10.90;99.90
7204;DHT22;3643;52.460;13.322;2024-02-15T09:17:47;11.00;99.90
7204;DHT22;3643;52.460;13.322;2024-02-15T09:20:16;10.90;99.90
7204;DHT22;3643;52.460;13.322;2024-02-15T09:22:48;11.00;99.90
7204;DHT22;3643;52.460;13.322;2024-02-15T09:25:16;11.10;99.90
7204;DHT22;3643;52.460;13.322;2024-02-15T09:27:44;11.30;99.90
7204;DHT22;3643;52.460;13.322;2024-02-15T09:30:13;11.40;99.90
7204;DHT22;3643;52.460;13.322;2024-02-15T09:32:43;11.30;99.90
7204;DHT22;3643;52.460;13.322;2024-02-15T09:39:28;11.20;99.90
7204;DHT22;3643;52.460;13.322;2024-02-15T09:41:56;11.10;99.90
7204;DHT22;3643;52.460;13.322;2024-02-15T09:44:26;11.10;99.90
7204;DHT22;3643;52.460;13.322;2024-02-15T09:47:02;11.20;99.90
7204;DHT22;3643;52.460;13.322;2024-02-15T09:49:35;11.40;99.90
7204;DHT22;3643;52.460;13.322;2024-02-15T09:52:06;11.30;99.90
7204;DHT22;3643;52.460;13.322;2024-02-15T09:54:40;11.50;99.90
7204;DHT22;3643;52.460;13.322;2024-02-15T09:57:11;11.40;99.90
7204;DHT22;3643;52.460;13.322;2024-02-15T09:59:39;11.50;99.90
7204;DHT22;3643;52.460;13.322;2024-02-15T10:02:09;11.60;99.90
7204;DHT22;3643;52.460;13.322;2024-02-15T10:04:40;11.70;99.90
7204;DHT22;3643;52.460;13.322;2024-02-15T10:07:08;11.80;99.90
7204;DHT22;3643;52.460;13.322;2024-02-15T10:09:37;11.80;99.90
7204;DHT22;3643;52.460;13.322;2024-02-15T10:12:06;11.70;99.90
7204;DHT22;3643;52.460;13.322;2024-02-15T10:14:36;11.60;99.90
7204;DHT22;3643;52.460;13.322;2024-02-15T10:17:08;11.50;99.90
7204;DHT22;3643;52.460;13.322;2024-02-15T10:19:37;11.70;99.90
7204;DHT22;3643;52.460;13.322;2024-02-15T10:22:07;11.90;99.90
7204;DHT22;3643;52.460;13.322;2024-02-15T10:24:35;11.90;99.90
7204;DHT22;3643;52.460;13.322;2024-02-15T10:27:07;12.00;99.90
7204;DHT22;3643;52.460;13.322;2024-02-15T10:29:37;12.00;99.90
7204;DHT22;3643;52.460;13.322;2024-02-15T10:32:06;12.20;99.90
7204;DHT22;3643;52.460;13.322;2024-02-15T10:34:43;12.20;99.90
7204;DHT22;3643;52.460;13.322;2024-02-15T10:37:13;12.20;99.90
7204;DHT22;3643;52.460;13.322;2024-02-15T10:39:43;12.10;99.90
7204;DHT22;3643;52.460;13.322;2024-02-15T10:42:13;12.30;99.90
7204;DHT22;3643;52.460;13.322;2024-02-15T10:44:42;12.30;99.90
7204;DHT22;3643;52.460;13.322;2024-02-15T10:47:10;12.60;99.90
7204;DHT22;3643;52.460;13.322;2024-02-15T10:49:38;12.70;99.90
7204;DHT22;3643;52.460;13.322;2024-02-15T10:52:11;12.50;99.90
7204;DHT22;3643;52.460;13.322;2024-02-15T10:54:46;12.50;99.90
7204;DHT22;3643;52.460;13.322;2024-02-15T10:57:19;12.70;99.90
7204;DHT22;3643;52.460;13.322;2024-02-15T10:59:54;12.70;99.90
7204;DHT22;3643;52.460;13.322;2024-02-15T11:02:28;12.90;99.90
7204;DHT22;3643;52.460;13.322;2024-02-15T11:05:02;12.80;99.90
7204;DHT22;3643;52.460;13.322;2024-02-15T11:07:32;12.80;99.90
7204;DHT22;3643;52.460;13.322;2024-02-15T11:10:02;12.70;99.90
7204;DHT22;3643;52.460;13.322;2024-02-15T11:12:36;12.90;99.90
7204;DHT22;3643;52.460;13.322;2024-02-15T11:15:06;12.70;99.90
7204;DHT22;3643;52.460;13.322;2024-02-15T11:17:50;12.70;99.90
7204;DHT22;3643;52.460;13.322;2024-02-15T11:20:45;12.80;99.90
7204;DHT22;3643;52.460;13.322;2024-02-15T11:23:27;12.70;99.90
7204;DHT22;3643;52.460;13.322;2024-02-15T11:25:58;12.90;99.90
7204;DHT22;3643;52.460;13.322;2024-02-15T11:28:39;13.00;99.90
7204;DHT22;3643;52.460;13.322;2024-02-15T11:31:08;13.10;99.90
7204;DHT22;3643;52.460;13.322;2024-02-15T11:33:37;13.30;99.90
7204;DHT22;3643;52.460;13.322;2024-02-15T11:36:07;13.40;99.90
7204;DHT22;3643;52.460;13.322;2024-02-15T11:38:37;13.40;99.90
7204;DHT22;3643;52.460;13.322;2024-02-15T11:41:08;13.40;99.90
7204;DHT22;3643;52.460;13.322;2024-02-15T11:43:52;13.10;99.90
7204;DHT22;3643;52.460;13.322;2024-02-15T11:46:25;12.70;99.90
7204;DHT22;3643;52.460;13.322;2024-02-15T11:48:57;12.60;99.90
7204;DHT22;3643;52.460;13.322;2024-02-15T11:51:32;12.40;99.90
7204;DHT22;3643;52.460;13.322;2024-02-15T11:54:05;12.50;99.90
7204;DHT22;3643;52.460;13.322;2024-02-15T11:56:53;12.50;99.90
7204;DHT22;3643;52.460;13.322;2024-02-15T11:59:43;12.40;99.90
7204;DHT22;3643;52.460;13.322;2024-02-15T12:02:39;12.40;99.90
7204;DHT22;3643;52.460;13.322;2024-02-15T12:05:25;12.20;99.90
7204;DHT22;3643;52.460;13.322;2024-02-15T12:08:25;12.20;99.90
7204;DHT22;3643;52.460;13.322;2024-02-15T12:11:13;12.20;99.90
7204;DHT22;3643;52.460;13.322;2024-02-15T12:13:59;12.30;99.90
7204;DHT22;3643;52.460;13.322;2024-02-15T12:16:46;12.40;99.90
7204;DHT22;3643;52.460;13.322;2024-02-15T12:19:31;12.40;99.90
7204;DHT22;3643;52.460;13.322;2024-02-15T12:22:00;12.50;99.90
7204;DHT22;3643;52.460;13.322;2024-02-15T12:24:31;12.60;99.90
7204;DHT22;3643;52.460;13.322;2024-02-15T12:27:00;12.40;99.90
7204;DHT22;3643;52.460;13.322;2024-02-15T12:29:29;12.20;99.90
7204;DHT22;3643;52.460;13.322;2024-02-15T12:31:59;12.40;99.90
7204;DHT22;3643;52.460;13.322;2024-02-15T12:34:27;12.40;99.90
7204;DHT22;3643;52.460;13.322;2024-02-15T12:37:05;12.60;99.90
7204;DHT22;3643;52.460;13.322;2024-02-15T12:39:36;12.90;99.90
7204;DHT22;3643;52.460;13.322;2024-02-15T12:42:06;12.90;99.90
7204;DHT22;3643;52.460;13.322;2024-02-15T12:44:36;13.10;99.90
7204;DHT22;3643;52.460;13.322;2024-02-15T12:47:05;13.00;99.90
7204;DHT22;3643;52.460;13.322;2024-02-15T12:49:33;12.90;99.90
7204;DHT22;3643;52.460;13.322;2024-02-15T12:52:34;12.90;99.90
7204;DHT22;3643;52.460;13.322;2024-02-15T12:55:10;13.10;99.90
7204;DHT22;3643;52.460;13.322;2024-02-15T12:57:38;13.30;99.90
7204;DHT22;3643;52.460;13.322;2024-02-15T13:00:09;13.40;99.90
7204;DHT22;3643;52.460;13.322;2024-02-15T13:02:46;13.40;99.90
7204;DHT22;3643;52.460;13.322;2024-02-15T13:05:16;13.30;99.90
7204;DHT22;3643;52.460;13.322;2024-02-15T13:07:46;13.30;99.90
7204;DHT22;3643;52.460;13.322;2024-02-15T13:10:15;13.40;99.90
7204;DHT22;3643;52.460;13.322;2024-02-15T13:12:44;13.30;99.90
7204;DHT22;3643;52.460;13.322;2024-02-15T13:15:14;13.30;99.90
7204;DHT22;3643;52.460;13.322;2024-02-15T13:17:46;13.50;99.90
7204;DHT22;3643;52.460;13.322;2024-02-15T13:20:15;13.60;99.90
7204;DHT22;3643;52.460;13.322;2024-02-15T13:22:47;13.50;99.90
7204;DHT22;3643;52.460;13.322;2024-02-15T13:25:15;13.40;99.90
7204;DHT22;3643;52.460;13.322;2024-02-15T13:27:43;13.10;99.90
7204;DHT22;3643;52.460;13.322;2024-02-15T13:30:13;13.40;99.90
7204;DHT22;3643;52.460;13.322;2024-02-15T13:32:41;13.10;99.90
7204;DHT22;3643;52.460;13.322;2024-02-15T13:35:11;13.20;99.90
7204;DHT22;3643;52.460;13.322;2024-02-15T13:37:41;13.40;99.90
7204;DHT22;3643;52.460;13.322;2024-02-15T13:40:11;13.60;99.90
7204;DHT22;3643;52.460;13.322;2024-02-15T13:42:43;13.80;99.90
7204;DHT22;3643;52.460;13.322;2024-02-15T13:45:16;13.80;99.90
7204;DHT22;3643;52.460;13.322;2024-02-15T13:47:45;13.80;99.90
7204;DHT22;3643;52.460;13.322;2024-02-15T13:50:19;13.80;99.90
7204;DHT22;3643;52.460;13.322;2024-02-15T13:52:47;13.60;99.90
7204;DHT22;3643;52.460;13.322;2024-02-15T13:55:16;13.40;99.90
7204;DHT22;3643;52.460;13.322;2024-02-15T13:57:46;13.30;99.90
7204;DHT22;3643;52.460;13.322;2024-02-15T14:00:15;13.10;99.90
7204;DHT22;3643;52.460;13.322;2024-02-15T14:02:49;13.10;99.90
7204;DHT22;3643;52.460;13.322;2024-02-15T14:05:19;13.10;99.90
7204;DHT22;3643;52.460;13.322;2024-02-15T14:07:51;13.10;99.90
7204;DHT22;3643;52.460;13.322;2024-02-15T14:10:20;13.10;99.90
7204;DHT22;3643;52.460;13.322;2024-02-15T14:12:48;13.10;99.90
7204;DHT22;3643;52.460;13.322;2024-02-15T14:15:19;13.10;99.90
7204;DHT22;3643;52.460;13.322;2024-02-15T14:17:47;13.10;99.90
7204;DHT22;3643;52.460;13.322;2024-02-15T14:20:16;13.10;99.90
7204;DHT22;3643;52.460;13.322;2024-02-15T14:22:46;13.10;99.90
7204;DHT22;3643;52.460;13.322;2024-02-15T14:25:16;13.10;99.90
7204;DHT22;3643;52.460;13.322;2024-02-15T14:27:44;13.10;99.90
7204;DHT22;3643;52.460;13.322;2024-02-15T14:30:14;13.10;99.90
7204;DHT22;3643;52.460;13.322;2024-02-15T14:33:00;13.00;99.90
7204;DHT22;3643;52.460;13.322;2024-02-15T14:35:31;13.00;99.90
7204;DHT22;3643;52.460;13.322;2024-02-15T14:38:04;13.10;99.90
7204;DHT22;3643;52.460;13.322;2024-02-15T14:40:35;13.40;99.90
7204;DHT22;3643;52.460;13.322;2024-02-15T14:43:06;13.20;99.90
7204;DHT22;3643;52.460;13.322;2024-02-15T14:45:35;13.20;99.90
7204;DHT22;3643;52.460;13.322;2024-02-15T14:48:05;13.20;99.90
7204;DHT22;3643;52.460;13.322;2024-02-15T14:50:35;13.20;99.90
7204;DHT22;3643;52.460;13.322;2024-02-15T14:53:04;13.30;99.90
7204;DHT22;3643;52.460;13.322;2024-02-15T14:55:34;13.40;99.90
7204;DHT22;3643;52.460;13.322;2024-02-15T14:58:06;13.30;99.90
7204;DHT22;3643;52.460;13.322;2024-02-15T15:00:39;13.20;99.90
7204;DHT22;3643;52.460;13.322;2024-02-15T15:03:09;13.20;99.90
7204;DHT22;3643;52.460;13.322;2024-02-15T15:05:38;13.10;99.90
7204;DHT22;3643;52.460;13.322;2024-02-15T15:08:25;13.10;99.90
7204;DHT22;3643;52.460;13.322;2024-02-15T15:11:11;13.10;99.90
7204;DHT22;3643;52.460;13.322;2024-02-15T15:13:57;13.10;99.90
7204;DHT22;3643;52.460;13.322;2024-02-15T15:16:25;13.10;99.90
7204;DHT22;3643;52.460;13.322;2024-02-15T15:18:55;13.10;99.90
7204;DHT22;3643;52.460;13.322;2024-02-15T15:21:23;13.00;99.90
7204;DHT22;3643;52.460;13.322;2024-02-15T15:23:55;13.00;99.90
7204;DHT22;3643;52.460;13.322;2024-02-15T15:26:24;12.90;99.90
7204;DHT22;3643;52.460;13.322;2024-02-15T15:28:53;12.90;99.90
7204;DHT22;3643;52.460;13.322;2024-02-15T15:31:24;12.90;99.90
7204;DHT22;3643;52.460;13.322;2024-02-15T15:33:52;12.90;99.90
7204;DHT22;3643;52.460;13.322;2024-02-15T15:36:22;12.90;99.90
7204;DHT22;3643;52.460;13.322;2024-02-15T15:38:50;12.90;99.90
7204;DHT22;3643;52.460;13.322;2024-02-15T15:41:20;12.90;99.90
7204;DHT22;3643;52.460;13.322;2024-02-15T15:43:49;12.90;99.90
7204;DHT22;3643;52.460;13.322;2024-02-15T15:46:18;12.80;99.90
7204;DHT22;3643;52.460;13.322;2024-02-15T15:48:46;12.80;99.90
7204;DHT22;3643;52.460;13.322;2024-02-15T15:51:15;12.80;99.90
7204;DHT22;3643;52.460;13.322;2024-02-15T15:53:43;12.70;99.90
7204;DHT22;3643;52.460;13.322;2024-02-15T15:56:14;12.70;99.90
7204;DHT22;3643;52.460;13.322;2024-02-15T15:58:44;12.70;99.90
7204;DHT22;3643;52.460;13.322;2024-02-15T16:01:15;12.70;99.90
7204;DHT22;3643;52.460;13.322;2024-02-15T16:03:48;12.70;99.90
7204;DHT22;3643;52.460;13.322;2024-02-15T16:06:17;12.70;99.90
7204;DHT22;3643;52.460;13.322;2024-02-15T16:08:45;12.70;99.90
7204;DHT22;3643;52.460;13.322;2024-02-15T16:11:14;12.60;99.90
7204;DHT22;3643;52.460;13.322;2024-02-15T16:13:44;12.60;99.90
7204;DHT22;3643;52.460;13.322;2024-02-15T16:16:14;12.60;99.90
7204;DHT22;3643;52.460;13.322;2024-02-15T16:18:42;12.50;99.90